createdAt,value
2023-04-11T03:29:14.428Z,99.99
2023-04-11T03:30:15.384Z,99.99
2023-04-11T03:31:15.412Z,99.99
2023-04-11T03:32:15.366Z,99.99
2023-04-11T03:33:15.404Z,99.99
2023-04-11T03:34:15.349Z,99.99
2023-04-11T03:35:15.369Z,99.99
2023-04-11T03:36:15.389Z,99.99
2023-04-11T03:37:15.341Z,99.99
2023-04-11T03:38:15.323Z,99.99
2023-04-11T03:39:15.369Z,99.99
2023-04-11T03:40:15.285Z,99.99
2023-04-11T03:41:15.304Z,99.99
2023-04-11T03:42:15.356Z,99.99
2023-04-11T03:43:15.349Z,99.99
2023-04-11T03:44:15.333Z,99.99
2023-04-11T03:45:15.323Z,99.51
2023-04-11T03:46:15.292Z,99.05
2023-04-11T03:47:15.252Z,99.05
2023-04-11T03:48:15.272Z,98.74
2023-04-11T03:49:15.215Z,97.71
2023-04-11T03:50:15.182Z,97.50
2023-04-11T03:51:15.213Z,97.81
2023-04-11T03:52:15.242Z,98.94
2023-04-11T03:53:15.190Z,98.47
2023-04-11T03:54:15.135Z,97.44
2023-04-11T03:55:15.197Z,98.58
2023-04-11T03:56:15.117Z,99.09
2023-04-11T03:57:15.146Z,98.58
2023-04-11T03:58:15.097Z,98.37
2023-04-11T03:59:15.103Z,98.06
2023-04-11T04:00:15.070Z,96.83
2023-04-11T04:01:15.090Z,96.72
2023-04-11T04:02:15.243Z,96.27
2023-04-11T04:03:15.266Z,95.96
2023-04-11T04:04:15.115Z,95.86
2023-04-11T04:05:15.042Z,95.45
2023-04-11T04:06:15.013Z,96.47
2023-04-11T04:07:15.035Z,95.55
2023-04-11T04:08:14.984Z,95.55
2023-04-11T04:09:15.025Z,95.45
2023-04-11T04:10:14.985Z,95.34
2023-04-11T04:11:14.986Z,95.96
2023-04-11T04:12:14.944Z,94.73
2023-04-11T04:13:14.957Z,93.80
2023-04-11T04:14:14.948Z,93.29
2023-04-11T04:15:15.129Z,94.21
2023-04-11T04:16:14.946Z,93.39
2023-04-11T04:17:14.918Z,93.59
2023-04-11T04:18:14.891Z,92.63
2023-04-11T04:19:15.122Z,93.35
2023-04-11T04:20:14.879Z,92.42
2023-04-11T04:21:14.891Z,93.70
2023-04-11T04:22:14.838Z,93.08
2023-04-11T04:23:14.869Z,92.97
2023-04-11T04:24:14.825Z,93.08
2023-04-11T04:25:14.834Z,93.35
2023-04-11T04:26:14.798Z,92.83
2023-04-11T04:27:14.830Z,93.04
2023-04-11T04:28:14.778Z,92.32
2023-04-11T04:29:14.806Z,92.52
2023-04-11T04:30:14.781Z,93.14
2023-04-11T04:31:14.792Z,93.35
2023-04-11T04:32:14.751Z,94.27
2023-04-11T04:33:14.783Z,93.18
2023-04-11T04:34:14.726Z,92.36
2023-04-11T04:35:14.729Z,94.01
2023-04-11T04:36:14.719Z,93.84
2023-04-11T04:37:14.712Z,95.59
2023-04-11T04:38:14.675Z,96.62
2023-04-11T04:39:14.733Z,96.42
2023-04-11T04:40:14.653Z,96.62
2023-04-11T04:41:14.700Z,97.03
2023-04-11T04:42:14.638Z,97.03
2023-04-11T04:43:14.646Z,96.93
2023-04-11T04:44:14.617Z,97.65
2023-04-11T04:45:14.685Z,98.27
2023-04-11T04:46:14.689Z,97.24
2023-04-11T04:47:14.647Z,97.75
2023-04-11T04:48:14.610Z,97.24
2023-04-11T04:49:14.603Z,95.80
2023-04-11T04:50:14.567Z,97.14
2023-04-11T04:51:14.597Z,95.28
2023-04-11T04:52:14.563Z,95.03
2023-04-11T04:53:14.544Z,94.31
2023-04-11T04:54:14.537Z,94.42
2023-04-11T04:55:14.550Z,94.73
2023-04-11T04:56:14.492Z,94.42
2023-04-11T04:57:14.519Z,92.77
2023-04-11T04:58:14.473Z,93.39
2023-04-11T04:59:14.539Z,93.80
2023-04-11T05:00:14.459Z,94.31
2023-04-11T05:01:14.464Z,95.45
2023-04-11T05:02:14.531Z,96.83
2023-04-11T05:03:14.579Z,94.87
2023-04-11T05:04:14.476Z,94.98
2023-04-11T05:05:14.423Z,96.21
2023-04-11T05:06:14.426Z,94.87
2023-04-11T05:07:14.421Z,94.67
2023-04-11T05:08:14.407Z,96.52
2023-04-11T05:09:14.447Z,94.98
2023-04-11T05:10:14.338Z,96.00
2023-04-11T05:11:14.349Z,98.52
2023-04-11T05:12:14.314Z,99.99
2023-04-11T05:13:14.333Z,99.99
2023-04-11T05:14:14.312Z,99.99
2023-04-11T05:15:17.090Z,99.99
2023-04-11T05:16:14.320Z,99.99
2023-04-11T05:17:14.291Z,99.99
2023-04-11T05:18:14.254Z,99.99
2023-04-11T05:19:14.298Z,99.99
2023-04-11T05:20:14.249Z,99.99
2023-04-11T05:21:14.283Z,99.99
2023-04-11T05:22:14.244Z,99.99
2023-04-11T05:23:14.236Z,99.99
2023-04-11T05:24:14.221Z,99.99
2023-04-11T05:25:14.241Z,99.99
2023-04-11T05:26:14.209Z,99.99
2023-04-11T05:27:14.204Z,99.99
2023-04-11T05:28:14.161Z,99.99
2023-04-11T05:29:14.178Z,99.99
2023-04-11T05:30:14.134Z,99.99
2023-04-11T05:31:14.221Z,99.99
2023-04-11T05:32:14.124Z,99.99
2023-04-11T05:33:14.142Z,99.99
2023-04-11T05:34:14.103Z,99.99
2023-04-11T05:35:14.105Z,99.99
2023-04-11T05:36:14.264Z,99.99
2023-04-11T05:37:14.092Z,99.99
2023-04-11T05:38:14.047Z,99.99
2023-04-11T05:39:14.116Z,99.99
2023-04-11T05:40:14.035Z,99.99
2023-04-11T05:41:14.053Z,99.99
2023-04-11T05:42:14.034Z,99.99
2023-04-11T05:43:14.030Z,99.99
2023-04-11T05:44:13.992Z,99.34
2023-04-11T05:45:14.036Z,99.04
2023-04-11T05:46:14.078Z,99.55
2023-04-11T05:47:13.992Z,98.62
2023-04-11T05:48:15.950Z,98.11
2023-04-11T05:49:13.957Z,97.03
2023-04-11T05:50:13.943Z,97.03
2023-04-11T05:51:13.979Z,96.31
2023-04-11T05:52:13.923Z,96.00
2023-04-11T05:53:13.943Z,96.83
2023-04-11T05:54:13.890Z,96.62
2023-04-11T05:55:13.890Z,95.34
2023-04-11T05:56:13.857Z,95.75
2023-04-11T05:57:13.895Z,93.86
2023-04-11T05:58:13.867Z,93.36
2023-04-11T05:59:13.853Z,92.80
2023-04-11T06:00:13.815Z,90.20
2023-04-11T06:01:13.832Z,89.27
2023-04-11T06:02:13.874Z,89.23
2023-04-11T06:03:13.943Z,87.63
2023-04-11T06:04:13.939Z,89.01
2023-04-11T06:05:13.820Z,90.69
2023-04-11T06:06:13.774Z,90.42
2023-04-11T06:07:13.763Z,92.11
2023-04-11T06:08:13.759Z,91.95
2023-04-11T06:09:13.757Z,91.78
2023-04-11T06:10:13.764Z,92.96
2023-04-11T06:11:13.729Z,94.65
2023-04-11T06:12:13.718Z,95.10
2023-04-11T06:13:13.698Z,96.03
2023-04-11T06:14:13.718Z,97.58
2023-04-11T06:15:13.973Z,96.28
2023-04-11T06:16:13.730Z,95.36
2023-04-11T06:17:13.647Z,95.67
2023-04-11T06:18:13.663Z,95.25
2023-04-11T06:19:13.627Z,95.77
2023-04-11T06:20:13.644Z,95.56
2023-04-11T06:21:13.625Z,95.56
2023-04-11T06:22:13.621Z,95.67
2023-04-11T06:23:13.579Z,95.25
2023-04-11T06:24:13.591Z,96.91
2023-04-11T06:25:13.583Z,95.98
2023-04-11T06:26:13.575Z,96.18
2023-04-11T06:27:13.562Z,95.98
2023-04-11T06:28:13.576Z,95.77
2023-04-11T06:29:13.515Z,95.98
2023-04-11T06:30:13.552Z,95.77
2023-04-11T06:31:13.628Z,96.49
2023-04-11T06:32:13.505Z,95.36
2023-04-11T06:33:13.525Z,96.96
2023-04-11T06:34:13.517Z,94.70
2023-04-11T06:35:13.513Z,94.76
2023-04-11T06:36:13.535Z,93.06
2023-04-11T06:37:13.464Z,92.86
2023-04-11T06:38:13.452Z,92.34
2023-04-11T06:39:13.442Z,90.55
2023-04-11T06:40:13.442Z,89.79
2023-04-11T06:41:13.407Z,91.23
2023-04-11T06:42:13.421Z,90.78
2023-04-11T06:43:13.388Z,89.34
2023-04-11T06:44:13.433Z,89.23
2023-04-11T06:45:13.389Z,87.96
2023-04-11T06:46:13.374Z,88.20
2023-04-11T06:47:13.376Z,89.44
2023-04-11T06:48:13.346Z,91.95
2023-04-11T06:49:13.316Z,93.43
2023-04-11T06:50:13.338Z,94.30
2023-04-11T06:51:13.306Z,95.78
2023-04-11T06:52:13.312Z,98.05
2023-04-11T06:53:13.271Z,98.82
2023-04-11T06:54:13.295Z,99.74
2023-04-11T06:55:13.282Z,99.85
2023-04-11T06:56:13.287Z,99.99
2023-04-11T06:57:13.258Z,99.33
2023-04-11T06:58:13.266Z,99.23
2023-04-11T06:59:13.236Z,99.99
2023-04-11T07:00:13.266Z,99.54
2023-04-11T07:01:13.204Z,99.13
2023-04-11T07:02:13.296Z,99.02
2023-04-11T07:03:13.256Z,98.61
2023-04-11T07:04:13.255Z,99.02
2023-04-11T07:05:13.250Z,99.49
2023-04-11T07:06:13.158Z,99.08
2023-04-11T07:07:13.128Z,98.46
2023-04-11T07:08:13.151Z,98.46
2023-04-11T07:09:13.121Z,96.92
2023-04-11T07:10:13.113Z,96.61
2023-04-11T07:11:13.108Z,95.78
2023-04-11T07:12:13.131Z,94.96
2023-04-11T07:13:13.137Z,93.62
2023-04-11T07:14:13.079Z,93.79
2023-04-11T07:15:13.081Z,94.81
2023-04-11T07:16:13.096Z,91.21
2023-04-11T07:17:13.019Z,91.47
2023-04-11T07:18:13.098Z,90.92
2023-04-11T07:19:13.014Z,90.36
2023-04-11T07:20:13.025Z,90.67
2023-04-11T07:21:13.018Z,90.57
2023-04-11T07:22:13.024Z,90.26
2023-04-11T07:23:12.960Z,88.00
2023-04-11T07:24:12.984Z,88.89
2023-04-11T07:25:12.940Z,86.99
2023-04-11T07:26:12.968Z,86.27
2023-04-11T07:27:12.961Z,85.25
2023-04-11T07:28:13.000Z,86.58
2023-04-11T07:29:14.645Z,85.31
2023-04-11T07:30:12.955Z,84.90
2023-04-11T07:31:12.908Z,83.42
2023-04-11T07:32:12.898Z,82.91
2023-04-11T07:33:12.879Z,81.68
2023-04-11T07:34:12.881Z,81.37
2023-04-11T07:35:12.863Z,81.78
2023-04-11T07:36:12.916Z,82.05
2023-04-11T07:37:12.809Z,81.85
2023-04-11T07:38:12.825Z,82.12
2023-04-11T07:39:12.820Z,79.41
2023-04-11T07:40:12.824Z,80.27
2023-04-11T07:41:12.769Z,80.78
2023-04-11T07:42:12.798Z,77.61
2023-04-11T07:43:12.757Z,78.42
2023-04-11T07:44:12.765Z,78.49
2023-04-11T07:45:12.755Z,77.19
2023-04-11T07:46:12.864Z,74.36
2023-04-11T07:47:12.731Z,74.66
2023-04-11T07:48:12.743Z,74.26
2023-04-11T07:49:12.707Z,73.06
2023-04-11T07:50:12.699Z,74.43
2023-04-11T07:51:12.733Z,74.87
2023-04-11T07:52:14.142Z,74.57
2023-04-11T07:53:12.646Z,75.01
2023-04-11T07:54:12.705Z,76.51
2023-04-11T07:55:12.668Z,75.32
2023-04-11T07:56:12.633Z,75.93
2023-04-11T07:57:12.623Z,75.15
2023-04-11T07:58:12.620Z,75.56
2023-04-11T07:59:12.579Z,77.71
2023-04-11T08:00:12.604Z,77.10
2023-04-11T08:01:12.574Z,76.93
2023-04-11T08:02:12.626Z,77.03
2023-04-11T08:03:12.710Z,77.65
2023-04-11T08:04:12.754Z,77.95
2023-04-11T08:05:12.622Z,76.62
2023-04-11T08:06:12.532Z,75.97
2023-04-11T08:07:12.525Z,75.21
2023-04-11T08:08:12.519Z,74.91
2023-04-11T08:09:12.517Z,73.50
2023-04-11T08:10:12.492Z,74.49
2023-04-11T08:11:12.489Z,73.44
2023-04-11T08:12:12.471Z,72.14
2023-04-11T08:13:12.447Z,70.77
2023-04-11T08:14:12.466Z,69.47
2023-04-11T08:15:12.528Z,70.29
2023-04-11T08:16:12.549Z,69.65
2023-04-11T08:17:25.156Z,70.06
2023-04-11T08:18:12.631Z,69.31
2023-04-11T08:19:12.387Z,68.11
2023-04-11T08:20:12.390Z,67.26
2023-04-11T08:21:12.398Z,67.46
2023-04-11T08:22:12.401Z,65.83
2023-04-11T08:23:12.332Z,66.61
2023-04-11T08:24:12.356Z,65.28
2023-04-11T08:25:12.309Z,65.87
2023-04-11T08:26:12.332Z,65.22
2023-04-11T08:27:12.304Z,64.71
2023-04-11T08:28:12.314Z,63.45
2023-04-11T08:29:12.273Z,64.51
2023-04-11T08:30:12.282Z,65.63
2023-04-11T08:31:12.289Z,65.57
2023-04-11T08:32:12.261Z,63.43
2023-04-11T08:33:12.257Z,65.12
2023-04-11T08:34:12.260Z,65.25
2023-04-11T08:35:12.204Z,65.56
2023-04-11T08:36:12.279Z,65.97
2023-04-11T08:37:12.184Z,66.92
2023-04-11T08:38:12.275Z,67.33
2023-04-11T08:39:12.194Z,66.69
2023-04-11T08:40:12.196Z,68.29
2023-04-11T08:41:12.174Z,63.73
2023-04-11T08:42:12.185Z,63.93
2023-04-11T08:43:12.286Z,64.27
2023-04-11T08:44:12.512Z,65.43
2023-04-11T08:45:12.209Z,64.51
2023-04-11T08:46:12.278Z,64.64
2023-04-11T08:47:12.080Z,65.77
2023-04-11T08:48:12.223Z,66.69
2023-04-11T08:49:12.077Z,65.15
2023-04-11T08:50:12.075Z,65.11
2023-04-11T08:51:12.096Z,67.05
2023-04-11T08:52:12.048Z,66.13
2023-04-11T08:53:12.032Z,64.57
2023-04-11T08:54:12.022Z,63.18
2023-04-11T08:55:11.999Z,63.39
2023-04-11T08:56:12.010Z,65.16
2023-04-11T08:57:12.012Z,62.48
2023-04-11T08:58:12.006Z,60.97
2023-04-11T08:59:11.947Z,61.08
2023-04-11T09:00:11.988Z,61.28
2023-04-11T09:01:11.972Z,61.34
2023-04-11T09:02:12.072Z,63.18
2023-04-11T09:03:12.159Z,64.03
2023-04-11T09:04:11.941Z,64.87
2023-04-11T09:05:11.903Z,65.39
2023-04-11T09:06:11.896Z,65.28
2023-04-11T09:07:11.885Z,68.55
2023-04-11T09:08:11.879Z,66.61
2023-04-11T09:09:11.859Z,68.46
2023-04-11T09:10:11.855Z,66.82
2023-04-11T09:11:11.957Z,66.41
2023-04-11T09:12:11.839Z,64.98
2023-04-11T09:13:11.808Z,65.80
2023-04-11T09:14:11.862Z,65.90
2023-04-11T09:15:11.863Z,65.93
2023-04-11T09:16:11.846Z,66.24
2023-04-11T09:17:11.798Z,65.72
2023-04-11T09:18:11.796Z,65.69
2023-04-11T09:19:11.751Z,66.72
2023-04-11T09:20:11.754Z,66.92
2023-04-11T09:21:11.807Z,66.92
2023-04-11T09:22:11.753Z,65.87
2023-04-11T09:23:11.695Z,65.53
2023-04-11T09:24:11.713Z,63.69
2023-04-11T09:25:11.706Z,62.98
2023-04-11T09:26:11.701Z,62.77
2023-04-11T09:27:11.706Z,62.74
2023-04-11T09:28:11.688Z,62.92
2023-04-11T09:29:11.641Z,62.20
2023-04-11T09:30:11.658Z,62.61
2023-04-11T09:31:11.648Z,62.96
2023-04-11T09:32:11.623Z,61.37
2023-04-11T09:33:11.651Z,61.34
2023-04-11T09:34:11.618Z,59.30
2023-04-11T09:35:11.605Z,61.88
2023-04-11T09:36:11.642Z,58.49
2023-04-11T09:37:11.575Z,58.67
2023-04-11T09:38:11.596Z,57.75
2023-04-11T09:39:11.552Z,58.51
2023-04-11T09:40:11.578Z,58.11
2023-04-11T09:41:11.533Z,56.17
2023-04-11T09:42:11.518Z,56.96
2023-04-11T09:43:11.505Z,57.68
2023-04-11T09:44:11.537Z,59.55
2023-04-11T09:45:11.498Z,58.45
2023-04-11T09:46:11.556Z,59.16
2023-04-11T09:47:11.451Z,59.80
2023-04-11T09:48:11.504Z,59.60
2023-04-11T09:49:12.056Z,60.03
2023-04-11T09:50:11.432Z,59.83
2023-04-11T09:51:12.621Z,60.03
2023-04-11T09:52:11.432Z,59.25
2023-04-11T09:53:11.381Z,60.58
2023-04-11T09:54:11.413Z,60.37
2023-04-11T09:55:11.355Z,60.78
2023-04-11T09:56:11.366Z,61.09
2023-04-11T09:57:11.353Z,61.57
2023-04-11T09:58:11.360Z,61.36
2023-04-11T09:59:11.324Z,65.36
2023-04-11T10:00:11.330Z,66.58
2023-04-11T10:01:11.291Z,67.71
2023-04-11T10:02:11.351Z,69.27
2023-04-11T10:03:11.467Z,68.46
2023-04-11T10:04:11.341Z,68.62
2023-04-11T10:05:11.286Z,69.06
2023-04-11T10:06:11.275Z,69.27
2023-04-11T10:07:11.226Z,70.94
2023-04-11T10:08:11.250Z,71.42
2023-04-11T10:09:11.483Z,69.24
2023-04-11T10:10:11.230Z,69.11
2023-04-11T10:11:11.187Z,65.50
2023-04-11T10:12:11.224Z,67.94
2023-04-11T10:13:11.166Z,69.92
2023-04-11T10:14:11.180Z,68.11
2023-04-11T10:15:11.156Z,67.97
2023-04-11T10:16:11.164Z,67.43
2023-04-11T10:17:11.128Z,67.74
2023-04-11T10:18:11.286Z,68.42
2023-04-11T10:19:11.102Z,66.86
2023-04-11T10:20:11.100Z,66.66
2023-04-11T10:21:11.114Z,67.27
2023-04-11T10:22:11.075Z,66.11
2023-04-11T10:23:11.089Z,68.87
2023-04-11T10:24:12.324Z,65.19
2023-04-11T10:25:11.065Z,63.07
2023-04-11T10:26:11.041Z,62.16
2023-04-11T10:27:11.057Z,61.82
2023-04-11T10:28:11.010Z,60.93
2023-04-11T10:29:11.030Z,61.13
2023-04-11T10:30:10.989Z,60.19
2023-04-11T10:31:11.035Z,60.08
2023-04-11T10:32:10.977Z,60.11
2023-04-11T10:33:11.009Z,59.39
2023-04-11T10:34:10.952Z,59.30
2023-04-11T10:35:10.959Z,58.83
2023-04-11T10:36:11.185Z,57.20
2023-04-11T10:37:10.964Z,56.38
2023-04-11T10:38:10.902Z,54.67
2023-04-11T10:39:10.931Z,54.46
2023-04-11T10:40:10.957Z,54.49
2023-04-11T10:41:10.903Z,53.85
2023-04-11T10:42:10.870Z,53.14
2023-04-11T10:43:10.879Z,51.12
2023-04-11T10:44:10.839Z,49.62
2023-04-11T10:45:10.900Z,47.37
2023-04-11T10:46:10.829Z,45.97
2023-04-11T10:47:10.941Z,45.84
2023-04-11T10:48:10.820Z,52.20
2023-04-11T10:49:10.810Z,55.55
2023-04-11T10:50:10.778Z,59.74
2023-04-11T10:51:10.835Z,62.88
2023-04-11T10:52:10.760Z,63.93
2023-04-11T10:53:10.813Z,65.37
2023-04-11T10:54:10.736Z,64.58
2023-04-11T10:55:10.747Z,65.50
2023-04-11T10:56:10.718Z,61.02
2023-04-11T10:57:10.731Z,61.66
2023-04-11T10:58:10.719Z,60.45
2023-04-11T10:59:10.778Z,57.98
2023-04-11T11:00:10.682Z,59.46
2023-04-11T11:01:21.116Z,58.25
2023-04-11T11:02:10.794Z,54.59
2023-04-11T11:03:10.802Z,50.48
2023-04-11T11:04:10.984Z,51.54
2023-04-11T11:05:10.775Z,52.05
2023-04-11T11:06:10.638Z,50.43
2023-04-11T11:07:10.635Z,49.18
2023-04-11T11:08:10.593Z,50.25
2023-04-11T11:09:10.607Z,48.08
2023-04-11T11:10:10.589Z,44.52
2023-04-11T11:11:10.590Z,46.28
2023-04-11T11:12:10.688Z,43.30
2023-04-11T11:13:10.568Z,43.44
2023-04-11T11:14:10.559Z,43.75
2023-04-11T11:15:10.552Z,46.89
2023-04-11T11:16:10.511Z,48.95
2023-04-11T11:17:10.506Z,44.85
2023-04-11T11:18:10.509Z,43.96
2023-04-11T11:19:10.490Z,42.68
2023-04-11T11:20:10.461Z,42.25
2023-04-11T11:21:14.222Z,43.55
2023-04-11T11:22:10.448Z,45.95
2023-04-11T11:23:10.458Z,45.67
2023-04-11T11:24:10.423Z,46.42
2023-04-11T11:25:10.434Z,47.99
2023-04-11T11:26:10.409Z,47.62
2023-04-11T11:27:10.406Z,46.78
2023-04-11T11:28:10.392Z,46.42
2023-04-11T11:29:10.381Z,46.47
2023-04-11T11:30:10.363Z,46.79
2023-04-11T11:31:10.360Z,46.59
2023-04-11T11:32:10.385Z,43.91
2023-04-11T11:33:10.402Z,42.66
2023-04-11T11:35:10.325Z,43.79
2023-04-11T11:36:10.281Z,44.02
2023-04-11T11:37:10.330Z,41.38
2023-04-11T11:38:10.288Z,42.57
2023-04-11T11:39:10.283Z,45.36
2023-04-11T11:40:10.260Z,45.81
2023-04-11T11:41:10.252Z,45.46
2023-04-11T11:42:10.215Z,45.48
2023-04-11T11:43:10.241Z,44.24
2023-04-11T11:44:10.237Z,45.03
2023-04-11T11:45:10.214Z,43.67
2023-04-11T11:46:10.209Z,44.14
2023-04-11T11:47:10.201Z,45.28
2023-04-11T11:48:10.169Z,46.52
2023-04-11T11:49:10.203Z,47.13
2023-04-11T11:50:10.160Z,47.49
2023-04-11T11:51:10.154Z,47.69
2023-04-11T11:52:10.143Z,47.71
2023-04-11T11:53:10.133Z,48.22
2023-04-11T11:54:10.092Z,48.75
2023-04-11T11:55:11.354Z,49.98
2023-04-11T11:56:10.093Z,50.92
2023-04-11T11:57:10.090Z,50.51
2023-04-11T11:58:10.078Z,51.02
2023-04-11T11:59:10.074Z,51.53
2023-04-11T12:00:10.054Z,53.92
2023-04-11T12:01:10.074Z,55.22
2023-04-11T12:02:10.115Z,55.20
2023-04-11T12:03:10.284Z,56.81
2023-04-11T12:04:10.128Z,53.83
2023-04-11T12:05:10.073Z,52.20
2023-04-11T12:06:09.990Z,53.70
2023-04-11T12:07:09.984Z,52.45
2023-04-11T12:08:09.966Z,52.94
2023-04-11T12:09:09.971Z,50.12
2023-04-11T12:10:09.936Z,50.65
2023-04-11T12:11:09.940Z,50.42
2023-04-11T12:12:09.930Z,50.98
2023-04-11T12:13:09.919Z,50.27
2023-04-11T12:14:09.961Z,48.97
2023-04-11T12:15:09.915Z,48.80
2023-04-11T12:16:09.918Z,50.22
2023-04-11T12:17:09.880Z,52.86
2023-04-11T12:18:09.901Z,49.40
2023-04-11T12:19:09.858Z,50.90
2023-04-11T12:20:09.851Z,49.99
2023-04-11T12:21:09.842Z,50.22
2023-04-11T12:22:09.800Z,49.73
2023-04-11T12:23:09.820Z,52.03
2023-04-11T12:24:09.784Z,50.60
2023-04-11T12:25:09.828Z,50.98
2023-04-11T12:26:09.786Z,48.22
2023-04-11T12:27:10.782Z,49.79
2023-04-11T12:28:09.744Z,50.20
2023-04-11T12:29:09.754Z,49.08
2023-04-11T12:30:09.728Z,48.69
2023-04-11T12:31:09.778Z,51.01
2023-04-11T12:32:09.707Z,48.06
2023-04-11T12:33:09.738Z,49.89
2023-04-11T12:34:09.675Z,48.55
2023-04-11T12:35:09.683Z,48.65
2023-04-11T12:36:09.654Z,48.11
2023-04-11T12:37:09.690Z,48.16
2023-04-11T12:38:10.869Z,48.22
2023-04-11T12:39:09.671Z,47.20
2023-04-11T12:40:09.636Z,46.88
2023-04-11T12:42:10.067Z,47.36
2023-04-11T12:43:09.617Z,47.03
2023-04-11T12:44:09.589Z,45.84
2023-04-11T12:45:09.592Z,47.06
2023-04-11T12:46:09.558Z,46.55
2023-04-11T12:47:09.558Z,49.67
2023-04-11T12:48:09.580Z,46.37
2023-04-11T12:49:09.557Z,45.46
2023-04-11T12:50:09.517Z,45.74
2023-04-11T12:51:09.514Z,45.46
2023-04-11T12:52:09.494Z,47.77
2023-04-11T12:53:09.508Z,46.45
2023-04-11T12:54:09.461Z,48.25
2023-04-11T12:55:09.707Z,47.02
2023-04-11T12:56:09.513Z,46.00
2023-04-11T12:57:09.459Z,44.27
2023-04-11T12:58:09.439Z,45.72
2023-04-11T12:59:09.435Z,44.90
2023-04-11T13:00:09.407Z,45.09
2023-04-11T13:01:09.421Z,45.84
2023-04-11T13:02:09.470Z,49.62
2023-04-11T13:03:09.594Z,48.34
2023-04-11T13:04:09.421Z,49.36
2023-04-11T13:05:09.470Z,48.02
2023-04-11T13:06:09.333Z,50.71
2023-04-11T13:07:09.381Z,46.71
2023-04-11T13:08:09.329Z,45.37
2023-04-11T13:09:09.336Z,45.47
2023-04-11T13:10:09.319Z,43.95
2023-04-11T13:11:09.311Z,44.38
2023-04-11T13:12:09.272Z,42.46
2023-04-11T13:13:18.121Z,41.86
2023-04-11T13:14:09.270Z,42.69
2023-04-11T13:15:09.271Z,42.39
2023-04-11T13:16:09.261Z,42.47
2023-04-11T13:17:09.242Z,44.95
2023-04-11T13:18:09.291Z,43.20
2023-04-11T13:19:09.242Z,43.23
2023-04-11T13:20:09.224Z,40.33
2023-04-11T13:21:09.204Z,41.05
2023-04-11T13:22:09.167Z,42.17
2023-04-11T13:23:10.480Z,40.33
2023-04-11T13:24:09.147Z,40.83
2023-04-11T13:25:09.164Z,41.64
2023-04-11T13:26:09.171Z,40.24
2023-04-11T13:27:09.156Z,40.75
2023-04-11T13:28:09.109Z,41.63
2023-04-11T13:29:09.130Z,42.21
2023-04-11T13:30:09.083Z,42.31
2023-04-11T13:31:09.141Z,40.11
2023-04-11T13:32:09.099Z,41.12
2023-04-11T13:33:09.099Z,39.90
2023-04-11T13:34:09.048Z,40.61
2023-04-11T13:35:09.075Z,41.09
2023-04-11T13:36:09.034Z,40.89
2023-04-11T13:37:09.162Z,40.37
2023-04-11T13:38:09.033Z,40.39
2023-04-11T13:39:09.031Z,43.55
2023-04-11T13:40:09.008Z,40.65
2023-04-11T13:41:08.984Z,40.95
2023-04-11T13:42:09.021Z,40.22
2023-04-11T13:43:08.978Z,40.53
2023-04-11T13:44:08.964Z,40.43
2023-04-11T13:45:08.948Z,39.92
2023-04-11T13:46:08.939Z,41.24
2023-04-11T13:47:08.953Z,42.37
2023-04-11T13:48:08.944Z,40.97
2023-04-11T13:49:08.911Z,44.65
2023-04-11T13:50:08.908Z,43.63
2023-04-11T13:51:08.886Z,42.19
2023-04-11T13:52:08.853Z,41.68
2023-04-11T13:53:08.876Z,42.61
2023-04-11T13:54:08.857Z,45.33
2023-04-11T13:55:08.849Z,41.07
2023-04-11T13:56:08.913Z,39.75
2023-04-11T13:57:08.844Z,39.87
2023-04-11T13:58:08.793Z,40.79
2023-04-11T13:59:08.833Z,39.84
2023-04-11T14:00:08.802Z,39.33
2023-04-11T14:01:08.786Z,43.06
2023-04-11T14:02:08.837Z,38.99
2023-04-11T14:03:08.797Z,39.11
2023-04-11T14:04:08.917Z,38.32
2023-04-11T14:05:08.738Z,38.62
2023-04-11T14:06:08.708Z,37.42
2023-04-11T14:07:08.737Z,39.04
2023-04-11T14:08:08.711Z,37.91
2023-04-11T14:09:08.705Z,36.29
2023-04-11T14:10:08.675Z,36.71
2023-04-11T14:11:08.690Z,36.61
2023-04-11T14:12:08.675Z,37.44
2023-04-11T14:13:11.524Z,37.15
2023-04-11T14:14:08.666Z,37.24
2023-04-11T14:15:08.641Z,36.63
2023-04-11T14:16:09.643Z,36.21
2023-04-11T14:17:08.685Z,36.82
2023-04-11T14:18:08.869Z,37.87
2023-04-11T14:19:08.608Z,38.10
2023-04-11T14:20:08.974Z,38.32
2023-04-11T14:21:08.570Z,39.14
2023-04-11T14:22:08.549Z,40.07
2023-04-11T14:23:08.611Z,40.05
2023-04-11T14:24:08.528Z,40.66
2023-04-11T14:25:08.530Z,40.97
2023-04-11T14:26:08.518Z,40.36
2023-04-11T14:27:08.510Z,41.05
2023-04-11T14:28:08.508Z,40.23
2023-04-11T14:29:08.532Z,40.97
2023-04-11T14:30:08.455Z,40.25
2023-04-11T14:31:08.700Z,39.66
2023-04-11T14:32:08.475Z,40.37
2023-04-11T14:33:08.519Z,40.46
2023-04-11T14:34:08.402Z,39.97
2023-04-11T14:35:08.437Z,39.54
2023-04-11T14:36:08.402Z,40.05
2023-04-11T14:37:08.391Z,39.14
2023-04-11T14:38:08.407Z,39.32
2023-04-11T14:39:08.370Z,39.04
2023-04-11T14:40:08.428Z,39.04
2023-04-11T14:41:08.361Z,39.44
2023-04-11T14:42:08.417Z,40.25
2023-04-11T14:43:08.314Z,37.10
2023-04-11T14:44:08.324Z,35.78
2023-04-11T14:45:08.309Z,35.88
2023-04-11T14:46:08.334Z,35.86
2023-04-11T14:47:08.274Z,34.22
2023-04-11T14:48:08.442Z,34.83
2023-04-11T14:49:08.241Z,35.75
2023-04-11T14:50:08.353Z,35.73
2023-04-11T14:51:08.253Z,34.33
2023-04-11T14:52:08.238Z,34.63
2023-04-11T14:53:08.205Z,35.04
2023-04-11T14:54:08.229Z,35.05
2023-04-11T14:55:08.204Z,36.07
2023-04-11T14:56:08.198Z,35.66
2023-04-11T14:57:08.179Z,36.27
2023-04-11T14:58:08.237Z,35.95
2023-04-11T14:59:08.143Z,35.34
2023-04-11T15:00:08.191Z,35.02
2023-04-11T15:01:08.144Z,35.00
2023-04-11T15:02:08.281Z,35.39
2023-04-11T15:03:08.311Z,33.28
2023-04-11T15:04:08.186Z,33.60
2023-04-11T15:05:08.071Z,33.92
2023-04-11T15:06:08.114Z,34.11
2023-04-11T15:07:08.065Z,35.00
2023-04-11T15:08:08.067Z,35.50
2023-04-11T15:09:08.079Z,34.38
2023-04-11T15:10:08.160Z,33.57
2023-04-11T15:11:08.014Z,33.79
2023-04-11T15:12:08.029Z,34.82
2023-04-11T15:13:07.989Z,35.04
2023-04-11T15:14:07.996Z,35.24
2023-04-11T15:15:07.981Z,35.05
2023-04-11T15:16:08.029Z,36.17
2023-04-11T15:17:07.957Z,35.68
2023-04-11T15:18:08.006Z,36.60
2023-04-11T15:19:07.927Z,36.29
2023-04-11T15:20:07.963Z,35.26
2023-04-11T15:21:07.919Z,35.12
2023-04-11T15:22:07.920Z,33.89
2023-04-11T15:23:07.897Z,34.00
2023-04-11T15:24:07.898Z,34.43
2023-04-11T15:25:07.869Z,34.33
2023-04-11T15:26:07.878Z,34.12
2023-04-11T15:27:07.865Z,32.80
2023-04-11T15:28:07.839Z,32.70
2023-04-11T15:29:07.827Z,33.51
2023-04-11T15:30:07.888Z,33.92
2023-04-11T15:31:07.856Z,33.11
2023-04-11T15:32:07.850Z,33.41
2023-04-11T15:33:07.837Z,33.21
2023-04-11T15:34:07.779Z,33.19
2023-04-11T15:35:07.771Z,32.99
2023-04-11T15:36:07.954Z,32.87
2023-04-11T15:37:07.737Z,32.98
2023-04-11T15:38:07.740Z,32.28
2023-04-11T15:39:07.725Z,34.31
2023-04-11T15:40:07.735Z,34.91
2023-04-11T15:41:07.712Z,34.99
2023-04-11T15:42:07.732Z,35.72
2023-04-11T15:43:07.678Z,34.50
2023-04-11T15:44:07.709Z,33.57
2023-04-11T15:45:07.689Z,33.75
2023-04-11T15:46:07.761Z,32.14
2023-04-11T15:47:07.707Z,31.84
2023-04-11T15:48:07.675Z,33.16
2023-04-11T15:49:07.601Z,34.17
2023-04-11T15:50:07.614Z,32.74
2023-04-11T15:51:07.619Z,32.82
2023-04-11T15:52:07.640Z,32.02
2023-04-11T15:53:07.556Z,32.45
2023-04-11T15:54:07.583Z,32.67
2023-04-11T15:55:07.577Z,32.96
2023-04-11T15:56:07.551Z,33.26
2023-04-11T15:57:07.557Z,31.95
2023-04-11T15:58:07.539Z,31.47
2023-04-11T15:59:07.504Z,31.87
2023-04-11T16:00:07.521Z,32.48
2023-04-11T16:01:07.510Z,32.47
2023-04-11T16:02:07.638Z,32.35
2023-04-11T16:03:07.653Z,31.74
2023-04-11T16:04:07.550Z,31.32
2023-04-11T16:05:07.638Z,31.10
2023-04-11T16:06:07.453Z,30.71
2023-04-11T16:07:07.457Z,30.60
2023-04-11T16:08:07.451Z,31.10
2023-04-11T16:09:07.412Z,30.79
2023-04-11T16:10:07.412Z,30.48
2023-04-11T16:11:07.376Z,31.40
2023-04-11T16:12:07.399Z,30.89
2023-04-11T16:13:07.344Z,31.21
2023-04-11T16:14:07.373Z,31.42
2023-04-11T16:15:07.341Z,32.56
2023-04-11T16:16:07.389Z,32.65
2023-04-11T16:17:07.301Z,33.16
2023-04-11T16:18:07.394Z,33.77
2023-04-11T16:19:07.307Z,33.47
2023-04-11T16:20:07.883Z,33.06
2023-04-11T16:21:07.293Z,32.17
2023-04-11T16:22:07.769Z,32.77
2023-04-11T16:23:07.251Z,32.28